Flight Track Log - Related Links

Times and Time Zones

All times are in EDT time to prevent confusion due to time zone crossing. See the SAS484 flight status page for this flight to view local times or setup timezone preferences in your user account.

Time Position Orientation Groundspeed Altitude Reporting Facility
EDT Latitude Longitude Course Direction KTS MPH feet Rate Location/Type
Fri 03:23:40 AM 60.1060 11.1430 132° Southeast 244 281 3,700  Level FlightAware ADS-B
Fri 03:24:10 AM 60.0830 11.1970 130° Southeast 263 303 4,900 2,533 Climbing FlightAware ADS-B
Fri 03:24:25 AM 60.0770 11.2340 108° East 268 308 5,600 2,914 Climbing FlightAware ADS-B
Fri 03:24:45 AM 60.0820 11.2800 78° East 270 311 6,600 3,000 Climbing FlightAware ADS-B
Fri 03:25:05 AM 60.1000 11.3190 47° Northeast 278 320 7,600 2,667 Climbing FlightAware ADS-B
Fri 03:25:30 AM 60.1250 11.3660 43° Northeast 299 344 8,600 2,509 Climbing FlightAware ADS-B
Fri 03:26:00 AM 60.1540 11.4240 45° Northeast 314 361 9,900 1,325 Climbing FlightAware ADS-B
Fri 03:26:47 AM 60.1980 11.5100 44° Northeast 322 371 10,300 2,496 Climbing FlightAware ADS-B
Fri 03:27:25 AM 60.2420 11.6330 54° Northeast 13,300 3,692 Climbing FlightAware ADS-B
Fri 03:28:05 AM 60.2750 11.7530 61° Northeast 374 430 15,100 2,743 Climbing FlightAware ADS-B
Fri 03:28:35 AM 60.2730 11.8590 92° East 372 428 16,500 2,763 Climbing FlightAware ADS-B
Fri 03:29:21 AM 60.2510 12.0140 106° East 383 441 18,600 2,791 Climbing FlightAware ADS-B
Fri 03:30:01 AM 60.2320 12.1540 105° East 393 452 20,500 2,769 Climbing FlightAware ADS-B
Fri 03:30:39 AM 60.2130 12.2880 106° East 404 465 22,200 2,786 Climbing FlightAware ADS-B
Fri 03:31:25 AM 60.1890 12.4580 106° East 414 476 24,400 2,714 Climbing FlightAware ADS-B
Fri 03:32:03 AM 60.1740 12.6020 102° East 431 496 26,000 2,500 Climbing FlightAware ADS-B
Fri 03:32:49 AM 60.1620 12.7870 97° East 440 506 27,900 2,372 Climbing FlightAware ADS-B
Fri 03:33:29 AM 60.1520 12.9510 97° East 449 517 29,400 2,357 Climbing FlightAware ADS-B
Fri 03:34:13 AM 60.1400 13.1330 97° East 449 517 31,200 2,372 Climbing FlightAware ADS-B
Fri 03:34:55 AM 60.1280 13.3060 98° East 448 516 32,800 2,093 Climbing FlightAware ADS-B
Fri 03:35:39 AM 60.1160 13.4830 98° East 449 517 34,200 1,610 Climbing FlightAware ADS-B
Fri 03:36:17 AM 60.1050 13.6390 98° East 443 510 35,000 600 Climbing FlightAware ADS-B
Fri 03:36:59 AM 60.0930 13.8100 98° East 441 507 35,000  Level FlightAware ADS-B
Fri 03:37:43 AM 60.0800 13.9880 98° East 440 506 35,000  Level FlightAware ADS-B
Fri 03:38:23 AM 60.0680 14.1470 99° East 439 505 35,000  Level FlightAware ADS-B
Fri 03:39:07 AM 60.0550 14.3250 98° East 439 505 35,000  Level FlightAware ADS-B
Fri 03:39:49 AM 60.0420 14.4940 99° East 440 506 35,000  Level FlightAware ADS-B
Fri 03:40:29 AM 60.0300 14.6530 99° East 441 507 35,000  Level FlightAware ADS-B
Fri 03:41:13 AM 60.0160 14.8280 99° East 441 507 35,000  Level FlightAware ADS-B
Fri 03:41:57 AM 60.0020 15.0050 99° East 445 512 35,000 -732 Level FlightAware ADS-B
Fri 03:42:35 AM 59.9890 15.1590 100° East 448 516 34,000 -2,386 Descending FlightAware ADS-B
Fri 03:43:20 AM 59.9730 15.3410 100° East 455 524 31,700 -2,714 Descending FlightAware ADS-B
Fri 03:43:59 AM 59.9600 15.5040 99° East 443 510 30,200 -2,203 Descending FlightAware ADS-B
Fri 03:44:39 AM 59.9460 15.6610 100° East 432 497 28,800 -2,114 Descending FlightAware ADS-B
Fri 03:45:27 AM 59.9300 15.8480 100° East 418 481 27,100 -2,133 Descending FlightAware ADS-B
Fri 03:46:09 AM 59.9160 16.0040 100° East 407 468 25,600 -2,122 Descending FlightAware ADS-B
Fri 03:46:49 AM 59.9030 16.1510 100° East 397 457 24,200 -1,950 Descending FlightAware ADS-B
Fri 03:47:29 AM 59.8900 16.2910 100° East 386 444 23,000 -1,929 Descending FlightAware ADS-B
Fri 03:48:13 AM 59.8760 16.4410 100° East 377 434 21,500 -2,118 Descending FlightAware ADS-B
Fri 03:48:54 AM 59.8640 16.5800 100° East 372 428 20,000 -2,169 Descending FlightAware ADS-B
Fri 03:49:36 AM 59.8500 16.7190 101° East 367 422 18,500 -2,071 Descending FlightAware ADS-B
Fri 03:50:18 AM 59.8380 16.8510 100° East 362 417 17,100 -1,976 Descending FlightAware ADS-B
Fri 03:50:58 AM 59.8270 16.9900 99° East 355 409 15,800 -1,857 Descending FlightAware ADS-B
Fri 03:51:42 AM 59.8320 17.1220 86° East 347 399 14,500 -1,884 Descending FlightAware ADS-B
Fri 03:52:24 AM 59.8390 17.2540 84° East 342 394 13,100 -1,929 Descending FlightAware ADS-B
Fri 03:53:06 AM 59.8470 17.3840 83° East 337 388 11,800 -1,884 Descending FlightAware ADS-B
Fri 03:53:50 AM 59.8540 17.5180 84° East 332 382 10,400 -1,781 Descending FlightAware ADS-B
Fri 03:54:10 AM 59.8570 17.5750 84° East 327 376 9,900 -1,650 Descending FlightAware ADS-B
Fri 03:54:30 AM 59.8530 17.6380 97° East 319 367 9,300 -1,250 Descending FlightAware ADS-B
Fri 03:54:58 AM 59.8450 17.7210 101° East 300 345 8,900 -955 Descending FlightAware ADS-B
Fri 03:55:14 AM 59.8410 17.7640 100° East 294 338 8,600 -1,364 Descending FlightAware ADS-B
Fri 03:55:42 AM 59.8330 17.8370 102° East 293 337 7,900 -1,615 Descending FlightAware ADS-B
Fri 03:56:06 AM 59.8260 17.9020 102° East 292 336 7,200 -1,731 Descending FlightAware ADS-B
Fri 03:56:34 AM 59.8180 17.9730 103° East 294 338 6,400 -1,500 Descending FlightAware ADS-B
Fri 03:57:02 AM 59.8100 18.0450 102° East 289 333 5,800 -1,220 Descending FlightAware ADS-B
Fri 03:57:33 AM 59.8010 18.1250 103° East 281 323 5,200 -814 Descending FlightAware ADS-B
Fri 03:58:01 AM 59.7930 18.1950 103° East 261 300 5,000 -643 Descending FlightAware ADS-B
Fri 03:58:29 AM 59.7830 18.2560 108° East 248 285 4,600 -882 Descending FlightAware ADS-B
Fri 03:58:35 AM 59.7790 18.2670 126° Southeast 247 284 4,500 -1,000 Descending FlightAware ADS-B
Fri 03:59:11 AM 59.7550 18.3230 130° Southeast 236 272 3,900 -1,176 Descending FlightAware ADS-B
Fri 03:59:26 AM 59.7380 18.3260 175° South 229 264 3,500 -1,333 Descending FlightAware ADS-B
Fri 03:59:38 AM 59.7260 18.3150 205° Southwest 218 251 3,300 -923 Descending FlightAware ADS-B
Fri 03:59:52 AM 59.7180 18.2940 233° Southwest 209 241 3,100 -878 Descending FlightAware ADS-B
Fri 04:00:19 AM 59.7020 18.2540 232° Southwest 200 230 2,700 -977 Descending FlightAware ADS-B
Fri 04:00:35 AM 59.6950 18.2280 242° Southwest 195 224 2,400 -955 Descending FlightAware ADS-B
Fri 04:01:03 AM 59.6890 18.1810 256° West 189 217 2,000 -960 Descending FlightAware ADS-B
Fri 04:01:25 AM 59.6850 18.1450 258° West 182 209 1,600 -1,000 Descending FlightAware ADS-B
Fri 04:01:45 AM 59.6810 18.1140 256° West 165 190 1,300 -857 Descending FlightAware ADS-B
Fri 04:02:14 AM 59.6760 18.0750 256° West 138 159 900 -737 Descending FlightAware ADS-B
Fri 04:02:42 AM 59.6720 18.0420 257° West 133 153 600 -643 Descending FlightAware ADS-B
Fri 04:03:10 AM 59.6680 18.0090 257° West 132 152 300 -643 Descending FlightAware ADS-B
Fri 04:03:30 AM 59.6650 17.9870 255° West 136 157 -900 Descending FlightAware ADS-B
Fri 04:06:00 AM 59.6519 17.9186 249° West  Level Estimated
Fri 04:07:00 AM 59.6519 17.9186 North  Level Estimated
Fri 04:08:00 AM 59.6519 17.9186 North  Level Estimated
Fri 04:09:00 AM 59.6519 17.9186 North  Level Estimated

Login

Don't have an account? Register now (free) for customized features, flight alerts, and more!